sensor_id;sensor_type;location;lat;lon;timestamp;P1;durP1;ratioP1;P2;durP2;ratioP2
5475;SDS011;2760;50.000;9.194;2022-08-19T00:01:30;21.13;;;15.60;;
5475;SDS011;2760;50.000;9.194;2022-08-19T00:04:01;17.43;;;14.80;;
5475;SDS011;2760;50.000;9.194;2022-08-19T00:06:30;19.83;;;16.27;;
5475;SDS011;2760;50.000;9.194;2022-08-19T00:08:57;23.30;;;17.50;;
5475;SDS011;2760;50.000;9.194;2022-08-19T00:11:25;18.27;;;15.50;;
5475;SDS011;2760;50.000;9.194;2022-08-19T00:13:52;22.10;;;16.80;;
5475;SDS011;2760;50.000;9.194;2022-08-19T00:16:20;18.07;;;16.00;;
5475;SDS011;2760;50.000;9.194;2022-08-19T00:18:47;19.60;;;15.13;;
5475;SDS011;2760;50.000;9.194;2022-08-19T00:21:16;19.60;;;16.80;;
5475;SDS011;2760;50.000;9.194;2022-08-19T00:23:43;18.40;;;16.30;;
5475;SDS011;2760;50.000;9.194;2022-08-19T00:26:10;20.03;;;16.37;;
5475;SDS011;2760;50.000;9.194;2022-08-19T00:28:37;17.80;;;14.83;;
5475;SDS011;2760;50.000;9.194;2022-08-19T00:31:05;20.47;;;16.70;;
5475;SDS011;2760;50.000;9.194;2022-08-19T00:33:33;18.03;;;15.10;;
5475;SDS011;2760;50.000;9.194;2022-08-19T00:36:00;17.70;;;15.27;;
5475;SDS011;2760;50.000;9.194;2022-08-19T00:38:31;18.43;;;16.10;;
5475;SDS011;2760;50.000;9.194;2022-08-19T00:40:59;18.30;;;15.83;;
5475;SDS011;2760;50.000;9.194;2022-08-19T00:43:26;20.47;;;16.60;;
5475;SDS011;2760;50.000;9.194;2022-08-19T00:45:55;23.53;;;17.80;;
5475;SDS011;2760;50.000;9.194;2022-08-19T00:48:22;18.73;;;16.33;;
5475;SDS011;2760;50.000;9.194;2022-08-19T00:50:49;30.20;;;18.47;;
5475;SDS011;2760;50.000;9.194;2022-08-19T00:53:19;20.10;;;15.90;;
5475;SDS011;2760;50.000;9.194;2022-08-19T00:55:49;21.63;;;17.37;;
5475;SDS011;2760;50.000;9.194;2022-08-19T00:58:19;21.17;;;16.93;;
5475;SDS011;2760;50.000;9.194;2022-08-19T01:00:48;20.40;;;16.40;;
5475;SDS011;2760;50.000;9.194;2022-08-19T01:03:16;21.00;;;17.40;;
5475;SDS011;2760;50.000;9.194;2022-08-19T01:05:45;24.43;;;18.70;;
5475;SDS011;2760;50.000;9.194;2022-08-19T01:08:16;22.73;;;19.30;;
5475;SDS011;2760;50.000;9.194;2022-08-19T01:10:47;21.50;;;18.07;;
5475;SDS011;2760;50.000;9.194;2022-08-19T01:13:17;20.77;;;16.80;;
5475;SDS011;2760;50.000;9.194;2022-08-19T01:15:48;21.17;;;17.57;;
5475;SDS011;2760;50.000;9.194;2022-08-19T01:18:18;20.37;;;17.30;;
5475;SDS011;2760;50.000;9.194;2022-08-19T01:20:46;22.77;;;16.93;;
5475;SDS011;2760;50.000;9.194;2022-08-19T01:23:15;20.10;;;17.30;;
5475;SDS011;2760;50.000;9.194;2022-08-19T01:25:44;21.70;;;17.60;;
5475;SDS011;2760;50.000;9.194;2022-08-19T01:28:15;20.17;;;16.27;;
5475;SDS011;2760;50.000;9.194;2022-08-19T01:30:44;23.57;;;18.50;;
5475;SDS011;2760;50.000;9.194;2022-08-19T01:33:12;22.70;;;18.03;;
5475;SDS011;2760;50.000;9.194;2022-08-19T01:35:40;22.70;;;18.07;;
5475;SDS011;2760;50.000;9.194;2022-08-19T01:38:09;19.87;;;17.20;;
5475;SDS011;2760;50.000;9.194;2022-08-19T01:40:48;21.17;;;16.57;;
5475;SDS011;2760;50.000;9.194;2022-08-19T01:43:15;19.90;;;17.40;;
5475;SDS011;2760;50.000;9.194;2022-08-19T01:45:44;23.53;;;18.93;;
5475;SDS011;2760;50.000;9.194;2022-08-19T01:48:11;24.47;;;19.00;;
5475;SDS011;2760;50.000;9.194;2022-08-19T01:50:39;21.67;;;17.63;;
5475;SDS011;2760;50.000;9.194;2022-08-19T01:53:07;23.73;;;18.73;;
5475;SDS011;2760;50.000;9.194;2022-08-19T01:55:37;26.53;;;17.80;;
5475;SDS011;2760;50.000;9.194;2022-08-19T01:58:09;27.97;;;18.70;;
5475;SDS011;2760;50.000;9.194;2022-08-19T02:00:39;22.83;;;18.13;;
5475;SDS011;2760;50.000;9.194;2022-08-19T02:03:06;23.57;;;19.00;;
5475;SDS011;2760;50.000;9.194;2022-08-19T02:05:33;24.93;;;19.40;;
5475;SDS011;2760;50.000;9.194;2022-08-19T02:08:00;22.23;;;18.37;;
5475;SDS011;2760;50.000;9.194;2022-08-19T02:10:27;22.23;;;18.33;;
5475;SDS011;2760;50.000;9.194;2022-08-19T02:12:55;23.10;;;17.73;;
5475;SDS011;2760;50.000;9.194;2022-08-19T02:15:23;22.47;;;18.20;;
5475;SDS011;2760;50.000;9.194;2022-08-19T02:17:51;20.27;;;16.70;;
5475;SDS011;2760;50.000;9.194;2022-08-19T02:20:18;24.83;;;17.63;;
5475;SDS011;2760;50.000;9.194;2022-08-19T02:22:45;23.97;;;18.27;;
5475;SDS011;2760;50.000;9.194;2022-08-19T02:25:12;23.33;;;18.37;;
5475;SDS011;2760;50.000;9.194;2022-08-19T02:27:40;20.83;;;16.70;;
5475;SDS011;2760;50.000;9.194;2022-08-19T02:30:09;22.30;;;17.80;;
5475;SDS011;2760;50.000;9.194;2022-08-19T02:32:45;22.70;;;17.80;;
5475;SDS011;2760;50.000;9.194;2022-08-19T02:35:13;25.83;;;18.30;;
5475;SDS011;2760;50.000;9.194;2022-08-19T02:37:40;24.50;;;19.33;;
5475;SDS011;2760;50.000;9.194;2022-08-19T02:40:25;28.20;;;19.57;;
5475;SDS011;2760;50.000;9.194;2022-08-19T02:42:52;21.20;;;18.10;;
5475;SDS011;2760;50.000;9.194;2022-08-19T02:45:19;23.03;;;18.70;;
5475;SDS011;2760;50.000;9.194;2022-08-19T02:47:47;30.87;;;19.97;;
5475;SDS011;2760;50.000;9.194;2022-08-19T02:50:14;29.07;;;19.80;;
5475;SDS011;2760;50.000;9.194;2022-08-19T02:52:41;31.07;;;21.70;;
5475;SDS011;2760;50.000;9.194;2022-08-19T02:55:08;23.13;;;18.67;;
5475;SDS011;2760;50.000;9.194;2022-08-19T02:57:35;23.63;;;20.00;;
5475;SDS011;2760;50.000;9.194;2022-08-19T03:00:03;24.73;;;17.67;;
5475;SDS011;2760;50.000;9.194;2022-08-19T03:02:31;21.30;;;18.13;;
5475;SDS011;2760;50.000;9.194;2022-08-19T03:05:00;25.53;;;18.17;;
5475;SDS011;2760;50.000;9.194;2022-08-19T03:07:28;23.63;;;18.90;;
5475;SDS011;2760;50.000;9.194;2022-08-19T03:09:55;27.50;;;19.67;;
5475;SDS011;2760;50.000;9.194;2022-08-19T03:12:22;23.57;;;19.83;;
5475;SDS011;2760;50.000;9.194;2022-08-19T03:14:49;25.13;;;19.63;;
5475;SDS011;2760;50.000;9.194;2022-08-19T03:17:17;23.30;;;18.00;;
5475;SDS011;2760;50.000;9.194;2022-08-19T03:19:45;25.83;;;18.90;;
5475;SDS011;2760;50.000;9.194;2022-08-19T03:22:14;26.37;;;20.37;;
5475;SDS011;2760;50.000;9.194;2022-08-19T03:24:42;26.20;;;21.33;;
5475;SDS011;2760;50.000;9.194;2022-08-19T03:27:09;26.60;;;18.87;;
5475;SDS011;2760;50.000;9.194;2022-08-19T03:29:37;24.40;;;19.00;;
5475;SDS011;2760;50.000;9.194;2022-08-19T03:32:05;26.57;;;19.13;;
5475;SDS011;2760;50.000;9.194;2022-08-19T03:34:33;24.77;;;19.00;;
5475;SDS011;2760;50.000;9.194;2022-08-19T03:37:03;25.27;;;20.00;;
5475;SDS011;2760;50.000;9.194;2022-08-19T03:39:33;24.57;;;18.93;;
5475;SDS011;2760;50.000;9.194;2022-08-19T03:42:03;23.70;;;18.80;;
5475;SDS011;2760;50.000;9.194;2022-08-19T03:44:31;27.33;;;19.97;;
5475;SDS011;2760;50.000;9.194;2022-08-19T03:46:59;24.43;;;19.07;;
5475;SDS011;2760;50.000;9.194;2022-08-19T03:49:27;27.80;;;19.80;;
5475;SDS011;2760;50.000;9.194;2022-08-19T03:51:56;25.23;;;18.53;;
5475;SDS011;2760;50.000;9.194;2022-08-19T03:54:25;30.10;;;19.27;;
5475;SDS011;2760;50.000;9.194;2022-08-19T03:56:54;24.87;;;19.33;;
5475;SDS011;2760;50.000;9.194;2022-08-19T03:59:23;25.80;;;19.67;;
5475;SDS011;2760;50.000;9.194;2022-08-19T04:01:51;24.53;;;19.87;;
5475;SDS011;2760;50.000;9.194;2022-08-19T04:04:19;26.27;;;19.53;;
5475;SDS011;2760;50.000;9.194;2022-08-19T04:06:46;27.83;;;20.13;;
5475;SDS011;2760;50.000;9.194;2022-08-19T04:09:14;25.63;;;19.13;;
5475;SDS011;2760;50.000;9.194;2022-08-19T04:11:43;23.67;;;19.63;;
5475;SDS011;2760;50.000;9.194;2022-08-19T04:14:14;27.33;;;20.00;;
5475;SDS011;2760;50.000;9.194;2022-08-19T04:16:44;31.00;;;19.40;;
5475;SDS011;2760;50.000;9.194;2022-08-19T04:19:13;22.13;;;18.80;;
5475;SDS011;2760;50.000;9.194;2022-08-19T04:21:42;25.90;;;19.70;;
5475;SDS011;2760;50.000;9.194;2022-08-19T04:24:11;25.87;;;19.83;;
5475;SDS011;2760;50.000;9.194;2022-08-19T04:26:39;23.93;;;19.83;;
5475;SDS011;2760;50.000;9.194;2022-08-19T04:29:08;23.87;;;18.70;;
5475;SDS011;2760;50.000;9.194;2022-08-19T04:31:40;24.13;;;19.37;;
5475;SDS011;2760;50.000;9.194;2022-08-19T04:34:09;25.30;;;19.07;;
5475;SDS011;2760;50.000;9.194;2022-08-19T04:36:38;24.07;;;19.43;;
5475;SDS011;2760;50.000;9.194;2022-08-19T04:39:08;27.07;;;19.80;;
5475;SDS011;2760;50.000;9.194;2022-08-19T04:41:37;23.37;;;19.70;;
5475;SDS011;2760;50.000;9.194;2022-08-19T04:44:21;28.97;;;19.43;;
5475;SDS011;2760;50.000;9.194;2022-08-19T04:46:50;29.30;;;20.50;;
5475;SDS011;2760;50.000;9.194;2022-08-19T04:49:17;25.00;;;20.20;;
5475;SDS011;2760;50.000;9.194;2022-08-19T04:51:47;25.70;;;20.30;;
5475;SDS011;2760;50.000;9.194;2022-08-19T04:54:14;27.60;;;19.77;;
5475;SDS011;2760;50.000;9.194;2022-08-19T04:56:47;27.57;;;20.10;;
5475;SDS011;2760;50.000;9.194;2022-08-19T04:59:17;25.30;;;18.60;;
5475;SDS011;2760;50.000;9.194;2022-08-19T05:01:45;26.73;;;21.00;;
5475;SDS011;2760;50.000;9.194;2022-08-19T05:04:17;26.33;;;18.97;;
5475;SDS011;2760;50.000;9.194;2022-08-19T05:06:46;29.17;;;19.47;;
5475;SDS011;2760;50.000;9.194;2022-08-19T05:09:13;23.80;;;19.17;;
5475;SDS011;2760;50.000;9.194;2022-08-19T05:11:42;26.63;;;19.80;;
5475;SDS011;2760;50.000;9.194;2022-08-19T05:14:10;24.20;;;18.47;;
5475;SDS011;2760;50.000;9.194;2022-08-19T05:16:39;25.47;;;20.57;;
5475;SDS011;2760;50.000;9.194;2022-08-19T05:19:06;24.17;;;19.27;;
5475;SDS011;2760;50.000;9.194;2022-08-19T05:21:54;25.27;;;18.47;;
5475;SDS011;2760;50.000;9.194;2022-08-19T05:24:39;28.40;;;19.83;;
5475;SDS011;2760;50.000;9.194;2022-08-19T05:27:06;37.33;;;19.67;;
5475;SDS011;2760;50.000;9.194;2022-08-19T05:29:33;27.10;;;19.43;;
5475;SDS011;2760;50.000;9.194;2022-08-19T05:32:01;24.90;;;20.47;;
5475;SDS011;2760;50.000;9.194;2022-08-19T05:34:30;25.47;;;20.50;;
5475;SDS011;2760;50.000;9.194;2022-08-19T05:36:59;25.30;;;20.20;;
5475;SDS011;2760;50.000;9.194;2022-08-19T05:39:32;26.13;;;19.40;;
5475;SDS011;2760;50.000;9.194;2022-08-19T05:42:02;26.03;;;19.27;;
5475;SDS011;2760;50.000;9.194;2022-08-19T05:44:32;27.87;;;18.70;;
5475;SDS011;2760;50.000;9.194;2022-08-19T05:47:02;27.40;;;19.67;;
5475;SDS011;2760;50.000;9.194;2022-08-19T05:49:32;23.80;;;18.10;;
5475;SDS011;2760;50.000;9.194;2022-08-19T05:52:02;29.00;;;18.80;;
5475;SDS011;2760;50.000;9.194;2022-08-19T05:54:30;22.73;;;17.90;;
5475;SDS011;2760;50.000;9.194;2022-08-19T05:56:57;24.57;;;18.70;;
5475;SDS011;2760;50.000;9.194;2022-08-19T05:59:24;23.17;;;17.80;;
5475;SDS011;2760;50.000;9.194;2022-08-19T06:01:52;26.80;;;17.93;;
5475;SDS011;2760;50.000;9.194;2022-08-19T06:04:22;22.97;;;18.17;;
5475;SDS011;2760;50.000;9.194;2022-08-19T06:06:51;22.50;;;17.57;;
5475;SDS011;2760;50.000;9.194;2022-08-19T06:09:21;22.63;;;18.00;;
5475;SDS011;2760;50.000;9.194;2022-08-19T06:11:49;23.23;;;17.63;;
5475;SDS011;2760;50.000;9.194;2022-08-19T06:14:19;23.47;;;18.23;;
5475;SDS011;2760;50.000;9.194;2022-08-19T06:16:49;29.37;;;19.70;;
5475;SDS011;2760;50.000;9.194;2022-08-19T06:19:18;24.27;;;17.77;;
5475;SDS011;2760;50.000;9.194;2022-08-19T06:21:47;20.70;;;16.50;;
5475;SDS011;2760;50.000;9.194;2022-08-19T06:24:18;26.63;;;17.87;;
5475;SDS011;2760;50.000;9.194;2022-08-19T06:26:50;23.20;;;16.33;;
5475;SDS011;2760;50.000;9.194;2022-08-19T06:29:19;24.67;;;17.07;;
5475;SDS011;2760;50.000;9.194;2022-08-19T06:31:48;23.00;;;17.77;;
5475;SDS011;2760;50.000;9.194;2022-08-19T06:34:16;29.70;;;18.40;;
5475;SDS011;2760;50.000;9.194;2022-08-19T06:36:45;20.87;;;17.40;;
5475;SDS011;2760;50.000;9.194;2022-08-19T06:39:14;23.50;;;16.40;;
5475;SDS011;2760;50.000;9.194;2022-08-19T06:41:43;22.63;;;17.33;;
5475;SDS011;2760;50.000;9.194;2022-08-19T06:44:17;23.17;;;17.23;;
5475;SDS011;2760;50.000;9.194;2022-08-19T06:46:44;22.47;;;17.07;;
5475;SDS011;2760;50.000;9.194;2022-08-19T06:49:13;25.40;;;17.80;;
5475;SDS011;2760;50.000;9.194;2022-08-19T06:51:41;19.57;;;15.33;;
5475;SDS011;2760;50.000;9.194;2022-08-19T06:54:08;25.37;;;16.03;;
5475;SDS011;2760;50.000;9.194;2022-08-19T06:56:36;23.07;;;15.67;;
5475;SDS011;2760;50.000;9.194;2022-08-19T06:59:05;19.20;;;16.17;;
5475;SDS011;2760;50.000;9.194;2022-08-19T07:01:37;24.63;;;16.30;;
5475;SDS011;2760;50.000;9.194;2022-08-19T07:04:06;21.73;;;15.43;;
5475;SDS011;2760;50.000;9.194;2022-08-19T07:06:34;19.50;;;15.80;;
5475;SDS011;2760;50.000;9.194;2022-08-19T07:09:02;19.07;;;14.63;;
5475;SDS011;2760;50.000;9.194;2022-08-19T07:11:30;19.10;;;15.10;;
5475;SDS011;2760;50.000;9.194;2022-08-19T07:13:57;25.30;;;15.10;;
5475;SDS011;2760;50.000;9.194;2022-08-19T07:16:24;21.10;;;15.90;;
5475;SDS011;2760;50.000;9.194;2022-08-19T07:18:54;20.00;;;14.60;;
5475;SDS011;2760;50.000;9.194;2022-08-19T07:21:22;20.33;;;14.80;;
5475;SDS011;2760;50.000;9.194;2022-08-19T07:23:51;20.90;;;15.20;;
5475;SDS011;2760;50.000;9.194;2022-08-19T07:26:20;18.00;;;14.10;;
5475;SDS011;2760;50.000;9.194;2022-08-19T07:28:49;24.23;;;14.80;;
5475;SDS011;2760;50.000;9.194;2022-08-19T07:31:17;19.83;;;14.13;;
5475;SDS011;2760;50.000;9.194;2022-08-19T07:33:46;18.17;;;13.43;;
5475;SDS011;2760;50.000;9.194;2022-08-19T07:36:17;22.10;;;14.60;;
5475;SDS011;2760;50.000;9.194;2022-08-19T07:38:47;18.33;;;13.50;;
5475;SDS011;2760;50.000;9.194;2022-08-19T07:41:16;16.10;;;13.67;;
5475;SDS011;2760;50.000;9.194;2022-08-19T07:43:46;16.60;;;12.40;;
5475;SDS011;2760;50.000;9.194;2022-08-19T07:46:14;17.97;;;12.93;;
5475;SDS011;2760;50.000;9.194;2022-08-19T07:48:42;15.90;;;12.67;;
5475;SDS011;2760;50.000;9.194;2022-08-19T07:51:12;19.27;;;14.53;;
5475;SDS011;2760;50.000;9.194;2022-08-19T07:53:41;16.70;;;12.73;;
5475;SDS011;2760;50.000;9.194;2022-08-19T07:56:10;20.50;;;13.67;;
5475;SDS011;2760;50.000;9.194;2022-08-19T07:58:40;21.13;;;13.73;;
5475;SDS011;2760;50.000;9.194;2022-08-19T08:01:09;17.23;;;13.20;;
5475;SDS011;2760;50.000;9.194;2022-08-19T08:03:38;16.50;;;12.10;;
5475;SDS011;2760;50.000;9.194;2022-08-19T08:06:23;13.13;;;11.73;;
5475;SDS011;2760;50.000;9.194;2022-08-19T08:09:09;16.50;;;12.87;;
5475;SDS011;2760;50.000;9.194;2022-08-19T08:11:41;16.10;;;12.03;;
5475;SDS011;2760;50.000;9.194;2022-08-19T08:14:15;14.80;;;12.17;;
5475;SDS011;2760;50.000;9.194;2022-08-19T08:16:43;14.27;;;11.03;;
5475;SDS011;2760;50.000;9.194;2022-08-19T08:19:11;14.83;;;13.07;;
5475;SDS011;2760;50.000;9.194;2022-08-19T08:21:40;15.90;;;12.10;;
5475;SDS011;2760;50.000;9.194;2022-08-19T08:24:10;16.17;;;12.20;;
5475;SDS011;2760;50.000;9.194;2022-08-19T08:26:37;14.70;;;11.47;;
5475;SDS011;2760;50.000;9.194;2022-08-19T08:29:04;16.10;;;13.13;;
5475;SDS011;2760;50.000;9.194;2022-08-19T08:31:32;16.37;;;11.70;;
5475;SDS011;2760;50.000;9.194;2022-08-19T08:34:00;12.93;;;11.17;;
5475;SDS011;2760;50.000;9.194;2022-08-19T08:36:27;15.20;;;11.43;;
5475;SDS011;2760;50.000;9.194;2022-08-19T08:38:58;26.50;;;13.23;;
5475;SDS011;2760;50.000;9.194;2022-08-19T08:41:28;16.63;;;11.67;;
5475;SDS011;2760;50.000;9.194;2022-08-19T08:44:01;14.83;;;12.17;;
5475;SDS011;2760;50.000;9.194;2022-08-19T08:46:30;15.37;;;11.03;;
5475;SDS011;2760;50.000;9.194;2022-08-19T08:49:05;17.83;;;12.03;;
5475;SDS011;2760;50.000;9.194;2022-08-19T08:51:46;16.43;;;10.90;;
5475;SDS011;2760;50.000;9.194;2022-08-19T08:54:19;14.70;;;11.00;;
5475;SDS011;2760;50.000;9.194;2022-08-19T08:56:52;14.40;;;12.27;;
5475;SDS011;2760;50.000;9.194;2022-08-19T08:59:21;16.10;;;11.20;;
5475;SDS011;2760;50.000;9.194;2022-08-19T09:01:50;15.73;;;9.93;;
5475;SDS011;2760;50.000;9.194;2022-08-19T09:04:17;12.20;;;10.13;;
5475;SDS011;2760;50.000;9.194;2022-08-19T09:06:48;13.10;;;10.30;;
5475;SDS011;2760;50.000;9.194;2022-08-19T09:09:23;12.13;;;9.43;;
5475;SDS011;2760;50.000;9.194;2022-08-19T09:12:02;10.80;;;9.07;;
5475;SDS011;2760;50.000;9.194;2022-08-19T09:14:39;11.90;;;8.90;;
5475;SDS011;2760;50.000;9.194;2022-08-19T09:17:12;13.23;;;9.33;;
5475;SDS011;2760;50.000;9.194;2022-08-19T09:19:46;10.30;;;8.07;;
5475;SDS011;2760;50.000;9.194;2022-08-19T09:22:18;10.33;;;7.80;;
5475;SDS011;2760;50.000;9.194;2022-08-19T09:24:47;11.00;;;7.40;;
5475;SDS011;2760;50.000;9.194;2022-08-19T09:27:16;9.07;;;6.93;;
5475;SDS011;2760;50.000;9.194;2022-08-19T09:29:44;7.00;;;6.27;;
5475;SDS011;2760;50.000;9.194;2022-08-19T09:32:12;8.17;;;5.87;;
5475;SDS011;2760;50.000;9.194;2022-08-19T09:34:40;8.60;;;7.20;;
5475;SDS011;2760;50.000;9.194;2022-08-19T09:37:08;12.63;;;6.43;;
5475;SDS011;2760;50.000;9.194;2022-08-19T09:39:35;10.47;;;6.90;;
5475;SDS011;2760;50.000;9.194;2022-08-19T09:42:02;6.53;;;5.93;;
5475;SDS011;2760;50.000;9.194;2022-08-19T09:44:31;9.70;;;6.43;;
5475;SDS011;2760;50.000;9.194;2022-08-19T09:46:58;8.50;;;6.20;;
5475;SDS011;2760;50.000;9.194;2022-08-19T09:49:26;8.33;;;7.13;;
5475;SDS011;2760;50.000;9.194;2022-08-19T09:51:54;9.50;;;6.40;;
5475;SDS011;2760;50.000;9.194;2022-08-19T09:54:21;15.90;;;6.37;;
5475;SDS011;2760;50.000;9.194;2022-08-19T09:56:49;7.63;;;6.00;;
5475;SDS011;2760;50.000;9.194;2022-08-19T09:59:20;12.20;;;8.63;;
5475;SDS011;2760;50.000;9.194;2022-08-19T10:01:49;8.50;;;7.53;;
5475;SDS011;2760;50.000;9.194;2022-08-19T10:04:16;5.83;;;5.23;;
5475;SDS011;2760;50.000;9.194;2022-08-19T10:06:46;12.03;;;5.10;;
5475;SDS011;2760;50.000;9.194;2022-08-19T10:09:15;5.90;;;5.20;;
5475;SDS011;2760;50.000;9.194;2022-08-19T10:11:43;6.80;;;5.00;;
5475;SDS011;2760;50.000;9.194;2022-08-19T10:14:13;9.23;;;5.10;;
5475;SDS011;2760;50.000;9.194;2022-08-19T10:16:40;5.27;;;4.77;;
5475;SDS011;2760;50.000;9.194;2022-08-19T10:19:09;6.23;;;5.27;;
5475;SDS011;2760;50.000;9.194;2022-08-19T10:21:36;8.90;;;5.37;;
5475;SDS011;2760;50.000;9.194;2022-08-19T10:24:04;6.70;;;5.57;;
5475;SDS011;2760;50.000;9.194;2022-08-19T10:26:32;5.70;;;5.10;;
5475;SDS011;2760;50.000;9.194;2022-08-19T10:29:02;6.03;;;5.43;;
5475;SDS011;2760;50.000;9.194;2022-08-19T10:31:31;5.87;;;5.20;;
5475;SDS011;2760;50.000;9.194;2022-08-19T10:34:00;6.27;;;5.70;;
5475;SDS011;2760;50.000;9.194;2022-08-19T10:36:30;5.33;;;4.93;;
5475;SDS011;2760;50.000;9.194;2022-08-19T10:38:59;7.60;;;5.40;;
5475;SDS011;2760;50.000;9.194;2022-08-19T10:41:28;8.20;;;6.17;;
5475;SDS011;2760;50.000;9.194;2022-08-19T10:43:58;8.57;;;4.70;;
5475;SDS011;2760;50.000;9.194;2022-08-19T10:46:27;6.43;;;4.93;;
5475;SDS011;2760;50.000;9.194;2022-08-19T10:48:57;5.73;;;4.77;;
5475;SDS011;2760;50.000;9.194;2022-08-19T10:51:25;6.30;;;4.47;;
5475;SDS011;2760;50.000;9.194;2022-08-19T10:54:11;4.03;;;3.73;;
5475;SDS011;2760;50.000;9.194;2022-08-19T10:56:38;3.57;;;3.27;;
5475;SDS011;2760;50.000;9.194;2022-08-19T10:59:17;4.10;;;3.70;;
5475;SDS011;2760;50.000;9.194;2022-08-19T11:01:45;10.20;;;3.63;;
5475;SDS011;2760;50.000;9.194;2022-08-19T11:04:12;5.37;;;3.00;;
5475;SDS011;2760;50.000;9.194;2022-08-19T11:06:42;6.70;;;4.13;;
5475;SDS011;2760;50.000;9.194;2022-08-19T11:09:14;4.97;;;3.03;;
5475;SDS011;2760;50.000;9.194;2022-08-19T11:11:42;3.77;;;3.20;;
5475;SDS011;2760;50.000;9.194;2022-08-19T11:14:10;3.03;;;2.63;;
5475;SDS011;2760;50.000;9.194;2022-08-19T11:16:39;3.80;;;3.40;;
5475;SDS011;2760;50.000;9.194;2022-08-19T11:19:08;4.03;;;3.73;;
5475;SDS011;2760;50.000;9.194;2022-08-19T11:21:38;3.73;;;3.43;;
5475;SDS011;2760;50.000;9.194;2022-08-19T11:24:08;4.10;;;3.70;;
5475;SDS011;2760;50.000;9.194;2022-08-19T11:26:39;4.30;;;3.90;;
5475;SDS011;2760;50.000;9.194;2022-08-19T11:29:07;3.00;;;2.80;;
5475;SDS011;2760;50.000;9.194;2022-08-19T11:31:41;5.63;;;4.20;;
5475;SDS011;2760;50.000;9.194;2022-08-19T11:34:11;5.33;;;3.77;;
5475;SDS011;2760;50.000;9.194;2022-08-19T11:36:42;4.13;;;3.63;;
5475;SDS011;2760;50.000;9.194;2022-08-19T11:39:12;4.63;;;4.20;;
5475;SDS011;2760;50.000;9.194;2022-08-19T11:41:42;4.90;;;4.40;;
5475;SDS011;2760;50.000;9.194;2022-08-19T11:44:09;4.57;;;4.17;;
5475;SDS011;2760;50.000;9.194;2022-08-19T11:46:38;4.07;;;3.70;;
5475;SDS011;2760;50.000;9.194;2022-08-19T11:49:06;4.70;;;4.30;;
5475;SDS011;2760;50.000;9.194;2022-08-19T11:51:34;4.20;;;3.80;;
5475;SDS011;2760;50.000;9.194;2022-08-19T11:54:03;3.90;;;3.60;;
5475;SDS011;2760;50.000;9.194;2022-08-19T11:56:32;3.60;;;3.33;;
5475;SDS011;2760;50.000;9.194;2022-08-19T11:59:00;5.23;;;4.00;;
5475;SDS011;2760;50.000;9.194;2022-08-19T12:01:27;4.50;;;4.10;;
5475;SDS011;2760;50.000;9.194;2022-08-19T12:03:55;4.60;;;4.07;;
5475;SDS011;2760;50.000;9.194;2022-08-19T12:06:24;3.83;;;3.43;;
5475;SDS011;2760;50.000;9.194;2022-08-19T12:08:54;11.93;;;3.53;;
5475;SDS011;2760;50.000;9.194;2022-08-19T12:11:22;3.77;;;3.43;;
5475;SDS011;2760;50.000;9.194;2022-08-19T12:13:49;4.10;;;3.70;;
5475;SDS011;2760;50.000;9.194;2022-08-19T12:16:20;8.70;;;4.30;;
5475;SDS011;2760;50.000;9.194;2022-08-19T12:18:48;3.70;;;3.40;;
5475;SDS011;2760;50.000;9.194;2022-08-19T12:21:17;4.20;;;3.80;;
5475;SDS011;2760;50.000;9.194;2022-08-19T12:23:46;5.23;;;4.00;;
5475;SDS011;2760;50.000;9.194;2022-08-19T12:26:14;4.63;;;3.80;;
5475;SDS011;2760;50.000;9.194;2022-08-19T12:28:42;4.40;;;4.10;;
5475;SDS011;2760;50.000;9.194;2022-08-19T12:31:10;4.10;;;3.70;;
5475;SDS011;2760;50.000;9.194;2022-08-19T12:33:39;3.60;;;3.30;;
5475;SDS011;2760;50.000;9.194;2022-08-19T12:36:07;5.13;;;4.63;;
5475;SDS011;2760;50.000;9.194;2022-08-19T12:38:37;10.40;;;3.93;;
5475;SDS011;2760;50.000;9.194;2022-08-19T12:41:06;5.57;;;4.00;;
5475;SDS011;2760;50.000;9.194;2022-08-19T12:43:36;3.93;;;3.43;;
5475;SDS011;2760;50.000;9.194;2022-08-19T12:46:03;4.80;;;3.63;;
5475;SDS011;2760;50.000;9.194;2022-08-19T12:48:30;4.53;;;4.13;;
5475;SDS011;2760;50.000;9.194;2022-08-19T12:51:00;3.90;;;3.50;;
5475;SDS011;2760;50.000;9.194;2022-08-19T12:53:31;4.40;;;3.97;;
5475;SDS011;2760;50.000;9.194;2022-08-19T12:56:00;4.47;;;4.07;;
5475;SDS011;2760;50.000;9.194;2022-08-19T12:58:28;6.60;;;4.07;;
5475;SDS011;2760;50.000;9.194;2022-08-19T13:00:59;4.47;;;4.07;;
5475;SDS011;2760;50.000;9.194;2022-08-19T13:03:32;4.07;;;3.77;;
5475;SDS011;2760;50.000;9.194;2022-08-19T13:06:00;3.97;;;3.67;;
5475;SDS011;2760;50.000;9.194;2022-08-19T13:08:27;4.30;;;3.90;;
5475;SDS011;2760;50.000;9.194;2022-08-19T13:10:54;6.40;;;4.20;;
5475;SDS011;2760;50.000;9.194;2022-08-19T13:13:23;4.27;;;3.87;;
5475;SDS011;2760;50.000;9.194;2022-08-19T13:15:51;6.90;;;3.37;;
5475;SDS011;2760;50.000;9.194;2022-08-19T13:18:37;3.93;;;3.63;;
5475;SDS011;2760;50.000;9.194;2022-08-19T13:21:07;6.60;;;3.77;;
5475;SDS011;2760;50.000;9.194;2022-08-19T13:23:36;4.03;;;3.73;;
5475;SDS011;2760;50.000;9.194;2022-08-19T13:26:04;3.53;;;3.33;;
5475;SDS011;2760;50.000;9.194;2022-08-19T13:28:33;4.00;;;3.67;;
5475;SDS011;2760;50.000;9.194;2022-08-19T13:31:15;3.97;;;3.67;;
5475;SDS011;2760;50.000;9.194;2022-08-19T13:34:00;3.63;;;3.33;;
5475;SDS011;2760;50.000;9.194;2022-08-19T13:36:29;4.07;;;3.30;;
5475;SDS011;2760;50.000;9.194;2022-08-19T13:38:56;5.03;;;3.67;;
5475;SDS011;2760;50.000;9.194;2022-08-19T13:41:24;8.00;;;3.80;;
5475;SDS011;2760;50.000;9.194;2022-08-19T13:43:51;4.77;;;4.37;;
5475;SDS011;2760;50.000;9.194;2022-08-19T13:46:19;5.77;;;3.53;;
5475;SDS011;2760;50.000;9.194;2022-08-19T13:48:47;3.73;;;3.43;;
5475;SDS011;2760;50.000;9.194;2022-08-19T13:51:14;5.57;;;3.73;;
5475;SDS011;2760;50.000;9.194;2022-08-19T13:53:43;4.03;;;3.63;;
5475;SDS011;2760;50.000;9.194;2022-08-19T13:56:11;4.50;;;3.63;;
5475;SDS011;2760;50.000;9.194;2022-08-19T13:58:40;3.53;;;3.23;;
5475;SDS011;2760;50.000;9.194;2022-08-19T14:01:07;4.00;;;3.70;;
5475;SDS011;2760;50.000;9.194;2022-08-19T14:03:35;9.50;;;5.10;;
5475;SDS011;2760;50.000;9.194;2022-08-19T14:06:02;4.03;;;3.73;;
5475;SDS011;2760;50.000;9.194;2022-08-19T14:08:29;3.83;;;3.53;;
5475;SDS011;2760;50.000;9.194;2022-08-19T14:10:59;4.40;;;4.00;;
5475;SDS011;2760;50.000;9.194;2022-08-19T14:13:26;4.20;;;3.83;;
5475;SDS011;2760;50.000;9.194;2022-08-19T14:15:53;8.03;;;4.20;;
5475;SDS011;2760;50.000;9.194;2022-08-19T14:18:20;6.97;;;4.17;;
5475;SDS011;2760;50.000;9.194;2022-08-19T14:20:48;4.47;;;3.50;;
5475;SDS011;2760;50.000;9.194;2022-08-19T14:23:15;4.73;;;4.33;;
5475;SDS011;2760;50.000;9.194;2022-08-19T14:25:42;8.67;;;3.97;;
5475;SDS011;2760;50.000;9.194;2022-08-19T14:28:12;4.17;;;3.73;;
5475;SDS011;2760;50.000;9.194;2022-08-19T14:30:39;4.20;;;3.80;;
5475;SDS011;2760;50.000;9.194;2022-08-19T14:33:06;4.93;;;4.30;;
5475;SDS011;2760;50.000;9.194;2022-08-19T14:35:34;5.00;;;4.60;;
5475;SDS011;2760;50.000;9.194;2022-08-19T14:38:03;6.77;;;4.23;;
5475;SDS011;2760;50.000;9.194;2022-08-19T14:40:33;3.97;;;3.67;;
5475;SDS011;2760;50.000;9.194;2022-08-19T14:43:01;4.43;;;4.03;;
5475;SDS011;2760;50.000;9.194;2022-08-19T14:45:34;5.53;;;5.03;;
5475;SDS011;2760;50.000;9.194;2022-08-19T14:48:04;6.37;;;5.00;;
5475;SDS011;2760;50.000;9.194;2022-08-19T14:50:32;5.23;;;4.83;;
5475;SDS011;2760;50.000;9.194;2022-08-19T14:53:01;4.97;;;4.57;;
5475;SDS011;2760;50.000;9.194;2022-08-19T14:55:30;6.80;;;5.27;;
5475;SDS011;2760;50.000;9.194;2022-08-19T14:57:57;4.77;;;4.37;;
5475;SDS011;2760;50.000;9.194;2022-08-19T15:00:25;8.70;;;4.23;;
5475;SDS011;2760;50.000;9.194;2022-08-19T15:02:53;5.30;;;4.90;;
5475;SDS011;2760;50.000;9.194;2022-08-19T15:05:20;5.20;;;4.80;;
5475;SDS011;2760;50.000;9.194;2022-08-19T15:07:47;8.60;;;4.80;;
5475;SDS011;2760;50.000;9.194;2022-08-19T15:10:15;5.20;;;4.40;;